sensor_id;sensor_type;location;lat;lon;timestamp;pressure;altitude;pressure_sealevel;temperature;humidity
1480;BME280;732;51.698;4.886;2023-02-12T00:01:36;103964.00;;;6.92;100.00
1480;BME280;732;51.698;4.886;2023-02-12T00:04:05;103959.78;;;6.94;100.00
1480;BME280;732;51.698;4.886;2023-02-12T00:06:33;103959.00;;;6.95;100.00
1480;BME280;732;51.698;4.886;2023-02-12T00:09:02;103952.84;;;6.94;100.00
1480;BME280;732;51.698;4.886;2023-02-12T00:11:31;103949.31;;;6.94;100.00
1480;BME280;732;51.698;4.886;2023-02-12T00:14:01;103957.16;;;6.94;100.00
1480;BME280;732;51.698;4.886;2023-02-12T00:16:33;103958.38;;;6.99;100.00
1480;BME280;732;51.698;4.886;2023-02-12T00:19:01;103942.97;;;6.90;100.00
1480;BME280;732;51.698;4.886;2023-02-12T00:21:29;103965.31;;;6.98;100.00
1480;BME280;732;51.698;4.886;2023-02-12T00:23:58;103951.13;;;6.95;100.00
1480;BME280;732;51.698;4.886;2023-02-12T00:26:27;103933.50;;;6.79;100.00
1480;BME280;732;51.698;4.886;2023-02-12T00:28:55;103969.38;;;7.06;100.00
1480;BME280;732;51.698;4.886;2023-02-12T00:31:26;103962.72;;;6.98;100.00
1480;BME280;732;51.698;4.886;2023-02-12T00:33:58;103942.28;;;6.80;100.00
1480;BME280;732;51.698;4.886;2023-02-12T00:36:29;103962.50;;;6.95;100.00
1480;BME280;732;51.698;4.886;2023-02-12T00:38:59;103962.50;;;6.95;100.00
1480;BME280;732;51.698;4.886;2023-02-12T00:41:28;103937.91;;;6.80;100.00
1480;BME280;732;51.698;4.886;2023-02-12T00:43:56;103887.69;;;6.46;100.00
1480;BME280;732;51.698;4.886;2023-02-12T00:46:25;103966.53;;;6.90;100.00
1480;BME280;732;51.698;4.886;2023-02-12T00:48:55;103911.47;;;6.63;100.00
1480;BME280;732;51.698;4.886;2023-02-12T00:51:24;103968.13;;;6.88;100.00
1480;BME280;732;51.698;4.886;2023-02-12T00:53:52;103965.50;;;6.88;100.00
1480;BME280;732;51.698;4.886;2023-02-12T00:56:21;103960.28;;;6.88;100.00
1480;BME280;732;51.698;4.886;2023-02-12T00:58:49;103960.00;;;6.84;100.00
1480;BME280;732;51.698;4.886;2023-02-12T01:01:18;103924.63;;;6.64;100.00
1480;BME280;732;51.698;4.886;2023-02-12T01:03:46;103956.13;;;6.79;100.00
1480;BME280;732;51.698;4.886;2023-02-12T01:06:16;103945.47;;;6.76;100.00
1480;BME280;732;51.698;4.886;2023-02-12T01:08:49;103967.34;;;6.89;100.00
1480;BME280;732;51.698;4.886;2023-02-12T01:11:19;103945.06;;;6.83;100.00
1480;BME280;732;51.698;4.886;2023-02-12T01:13:47;103954.03;;;6.86;100.00
1480;BME280;732;51.698;4.886;2023-02-12T01:16:20;103936.53;;;6.72;100.00
1480;BME280;732;51.698;4.886;2023-02-12T01:18:50;103958.47;;;6.74;100.00
1480;BME280;732;51.698;4.886;2023-02-12T01:21:25;103933.50;;;6.66;100.00
1480;BME280;732;51.698;4.886;2023-02-12T01:23:55;103961.88;;;6.86;100.00
1480;BME280;732;51.698;4.886;2023-02-12T01:26:24;103953.75;;;6.82;100.00
1480;BME280;732;51.698;4.886;2023-02-12T01:28:56;103915.50;;;6.57;100.00
1480;BME280;732;51.698;4.886;2023-02-12T01:31:28;103953.63;;;6.80;100.00
1480;BME280;732;51.698;4.886;2023-02-12T01:33:59;103898.28;;;6.48;100.00
1480;BME280;732;51.698;4.886;2023-02-12T01:36:30;103959.66;;;6.79;100.00
1480;BME280;732;51.698;4.886;2023-02-12T01:38:58;103917.38;;;6.60;100.00
1480;BME280;732;51.698;4.886;2023-02-12T01:41:32;103941.53;;;6.69;100.00
1480;BME280;732;51.698;4.886;2023-02-12T01:44:11;103956.84;;;6.76;100.00
1480;BME280;732;51.698;4.886;2023-02-12T01:46:40;103956.63;;;6.73;100.00
1480;BME280;732;51.698;4.886;2023-02-12T01:49:15;103921.50;;;6.56;100.00
1480;BME280;732;51.698;4.886;2023-02-12T01:51:51;103921.59;;;6.58;100.00
1480;BME280;732;51.698;4.886;2023-02-12T01:54:22;103960.94;;;6.73;100.00
1480;BME280;732;51.698;4.886;2023-02-12T01:56:53;103961.88;;;6.73;100.00
1480;BME280;732;51.698;4.886;2023-02-12T01:59:21;103972.22;;;6.72;100.00
1480;BME280;732;51.698;4.886;2023-02-12T02:01:52;103948.16;;;6.51;100.00
1480;BME280;732;51.698;4.886;2023-02-12T02:04:26;103935.25;;;6.54;100.00
1480;BME280;732;51.698;4.886;2023-02-12T02:07:00;103952.31;;;6.74;100.00
1480;BME280;732;51.698;4.886;2023-02-12T02:09:32;103938.72;;;6.66;100.00
1480;BME280;732;51.698;4.886;2023-02-12T02:12:02;103950.09;;;6.67;100.00
1480;BME280;732;51.698;4.886;2023-02-12T02:14:49;103933.13;;;6.48;100.00
1480;BME280;732;51.698;4.886;2023-02-12T02:17:33;103969.56;;;6.45;100.00
1480;BME280;732;51.698;4.886;2023-02-12T02:20:34;103966.66;;;6.54;100.00
1480;BME280;732;51.698;4.886;2023-02-12T02:23:44;103959.72;;;6.54;100.00
1480;BME280;732;51.698;4.886;2023-02-12T02:26:49;103966.38;;;6.63;100.00
1480;BME280;732;51.698;4.886;2023-02-12T02:32:49;103976.22;;;6.53;100.00
1480;BME280;732;51.698;4.886;2023-02-12T02:35:27;103971.09;;;6.55;100.00
1480;BME280;732;51.698;4.886;2023-02-12T02:38:15;103969.50;;;6.57;100.00
1480;BME280;732;51.698;4.886;2023-02-12T02:40:51;103947.53;;;6.42;100.00
1480;BME280;732;51.698;4.886;2023-02-12T02:43:28;103938.97;;;6.44;100.00
1480;BME280;732;51.698;4.886;2023-02-12T02:46:03;103964.56;;;6.62;100.00
1480;BME280;732;51.698;4.886;2023-02-12T02:48:36;103959.22;;;6.60;100.00
1480;BME280;732;51.698;4.886;2023-02-12T02:51:10;103943.59;;;6.48;100.00
1480;BME280;732;51.698;4.886;2023-02-12T02:53:44;103908.66;;;6.22;100.00
1480;BME280;732;51.698;4.886;2023-02-12T02:56:16;103934.44;;;6.42;100.00
1480;BME280;732;51.698;4.886;2023-02-12T02:58:51;103922.38;;;6.31;100.00
1480;BME280;732;51.698;4.886;2023-02-12T03:01:23;103925.06;;;6.32;100.00
1480;BME280;732;51.698;4.886;2023-02-12T03:03:59;103933.72;;;6.44;100.00
1480;BME280;732;51.698;4.886;2023-02-12T03:06:36;103944.63;;;6.50;100.00
1480;BME280;732;51.698;4.886;2023-02-12T03:09:15;103951.78;;;6.53;100.00
1480;BME280;732;51.698;4.886;2023-02-12T03:11:46;103951.97;;;6.56;100.00
1480;BME280;732;51.698;4.886;2023-02-12T03:14:20;103947.66;;;6.56;100.00
1480;BME280;732;51.698;4.886;2023-02-12T03:16:54;103950.03;;;6.40;100.00
1480;BME280;732;51.698;4.886;2023-02-12T03:19:30;103944.00;;;6.41;100.00
1480;BME280;732;51.698;4.886;2023-02-12T03:22:03;103943.06;;;6.41;100.00
1480;BME280;732;51.698;4.886;2023-02-12T03:24:35;103952.56;;;6.52;100.00
1480;BME280;732;51.698;4.886;2023-02-12T03:27:09;103947.13;;;6.49;100.00
1480;BME280;732;51.698;4.886;2023-02-12T03:29:39;103951.44;;;6.48;100.00
1480;BME280;732;51.698;4.886;2023-02-12T03:32:19;103951.56;;;6.50;100.00
1480;BME280;732;51.698;4.886;2023-02-12T03:35:00;103944.72;;;6.52;100.00
1480;BME280;732;51.698;4.886;2023-02-12T03:37:37;103939.97;;;6.46;100.00
1480;BME280;732;51.698;4.886;2023-02-12T03:40:15;103943.00;;;6.52;100.00
1480;BME280;732;51.698;4.886;2023-02-12T03:42:50;103943.00;;;6.52;100.00
1480;BME280;732;51.698;4.886;2023-02-12T03:45:34;103942.00;;;6.50;100.00
1480;BME280;732;51.698;4.886;2023-02-12T03:48:09;103942.91;;;6.51;100.00
1480;BME280;732;51.698;4.886;2023-02-12T03:50:47;103945.63;;;6.52;100.00
1480;BME280;732;51.698;4.886;2023-02-12T03:53:18;103923.91;;;6.40;100.00
1480;BME280;732;51.698;4.886;2023-02-12T03:55:53;103944.31;;;6.46;100.00
1480;BME280;732;51.698;4.886;2023-02-12T03:58:27;103894.59;;;6.20;100.00
1480;BME280;732;51.698;4.886;2023-02-12T04:00:56;103931.41;;;6.36;100.00
1480;BME280;732;51.698;4.886;2023-02-12T04:03:25;103946.94;;;6.46;100.00
1480;BME280;732;51.698;4.886;2023-02-12T04:05:55;103954.44;;;6.41;100.00
1480;BME280;732;51.698;4.886;2023-02-12T04:08:25;103960.59;;;6.42;100.00
1480;BME280;732;51.698;4.886;2023-02-12T04:11:03;103959.59;;;6.40;100.00
1480;BME280;732;51.698;4.886;2023-02-12T04:13:44;103963.31;;;6.43;100.00
1480;BME280;732;51.698;4.886;2023-02-12T04:16:23;103967.13;;;6.48;100.00
1480;BME280;732;51.698;4.886;2023-02-12T04:18:52;103964.66;;;6.50;100.00
1480;BME280;732;51.698;4.886;2023-02-12T04:21:37;103976.47;;;6.45;100.00
1480;BME280;732;51.698;4.886;2023-02-12T04:24:17;103941.34;;;6.28;100.00
1480;BME280;732;51.698;4.886;2023-02-12T04:26:51;103969.66;;;6.47;100.00
1480;BME280;732;51.698;4.886;2023-02-12T04:29:29;103954.59;;;6.31;100.00
1480;BME280;732;51.698;4.886;2023-02-12T04:32:04;103971.84;;;6.41;100.00
1480;BME280;732;51.698;4.886;2023-02-12T04:34:42;103987.66;;;6.42;100.00
1480;BME280;732;51.698;4.886;2023-02-12T04:37:18;103985.81;;;6.41;100.00
1480;BME280;732;51.698;4.886;2023-02-12T04:39:49;103987.53;;;6.41;100.00
1480;BME280;732;51.698;4.886;2023-02-12T04:42:19;103974.06;;;6.35;100.00
1480;BME280;732;51.698;4.886;2023-02-12T04:44:47;103979.69;;;6.41;100.00
1480;BME280;732;51.698;4.886;2023-02-12T04:47:16;103982.28;;;6.41;100.00
1480;BME280;732;51.698;4.886;2023-02-12T04:49:44;103985.91;;;6.43;100.00
1480;BME280;732;51.698;4.886;2023-02-12T04:52:12;103978.91;;;6.42;100.00
1480;BME280;732;51.698;4.886;2023-02-12T04:54:42;103983.31;;;6.43;100.00
1480;BME280;732;51.698;4.886;2023-02-12T04:57:11;103981.50;;;6.42;100.00
1480;BME280;732;51.698;4.886;2023-02-12T04:59:39;103907.94;;;6.00;100.00
1480;BME280;732;51.698;4.886;2023-02-12T05:02:08;103973.25;;;6.36;100.00
1480;BME280;732;51.698;4.886;2023-02-12T05:04:36;103981.41;;;6.40;100.00
1480;BME280;732;51.698;4.886;2023-02-12T05:07:04;103981.50;;;6.42;100.00
1480;BME280;732;51.698;4.886;2023-02-12T05:09:33;103973.25;;;6.36;100.00
1480;BME280;732;51.698;4.886;2023-02-12T05:12:03;103982.63;;;6.45;100.00
1480;BME280;732;51.698;4.886;2023-02-12T05:14:31;103988.63;;;6.44;100.00
1480;BME280;732;51.698;4.886;2023-02-12T05:17:00;103985.28;;;6.34;100.00
1480;BME280;732;51.698;4.886;2023-02-12T05:19:28;103984.91;;;6.41;100.00
1480;BME280;732;51.698;4.886;2023-02-12T05:21:57;103977.50;;;6.47;100.00
1480;BME280;732;51.698;4.886;2023-02-12T05:24:25;103980.09;;;6.47;100.00
1480;BME280;732;51.698;4.886;2023-02-12T05:26:54;103980.69;;;6.43;100.00
1480;BME280;732;51.698;4.886;2023-02-12T05:29:23;103982.19;;;6.39;100.00
1480;BME280;732;51.698;4.886;2023-02-12T05:31:52;103970.72;;;6.37;100.00
1480;BME280;732;51.698;4.886;2023-02-12T05:34:20;103978.56;;;6.37;100.00
1480;BME280;732;51.698;4.886;2023-02-12T05:36:49;103982.56;;;6.32;100.00
1480;BME280;732;51.698;4.886;2023-02-12T05:39:17;103941.28;;;6.15;100.00
1480;BME280;732;51.698;4.886;2023-02-12T05:41:46;103933.34;;;6.14;100.00
1480;BME280;732;51.698;4.886;2023-02-12T05:44:14;103984.81;;;6.39;100.00
1480;BME280;732;51.698;4.886;2023-02-12T05:46:44;103983.25;;;6.30;100.00
1480;BME280;732;51.698;4.886;2023-02-12T05:49:12;103990.91;;;6.27;100.00
1480;BME280;732;51.698;4.886;2023-02-12T05:51:41;103977.88;;;6.40;100.00
1480;BME280;732;51.698;4.886;2023-02-12T05:54:09;103972.13;;;6.32;100.00
1480;BME280;732;51.698;4.886;2023-02-12T05:56:43;103952.75;;;6.17;100.00
1480;BME280;732;51.698;4.886;2023-02-12T05:59:15;103977.41;;;6.21;100.00
1480;BME280;732;51.698;4.886;2023-02-12T06:01:47;103952.78;;;6.06;100.00
1480;BME280;732;51.698;4.886;2023-02-12T06:04:19;103981.50;;;6.17;100.00
1480;BME280;732;51.698;4.886;2023-02-12T06:06:49;103987.28;;;6.25;100.00
1480;BME280;732;51.698;4.886;2023-02-12T06:09:18;103980.94;;;6.21;100.00
1480;BME280;732;51.698;4.886;2023-02-12T06:11:47;103991.44;;;6.34;100.00
1480;BME280;732;51.698;4.886;2023-02-12T06:14:18;103996.97;;;6.39;100.00
1480;BME280;732;51.698;4.886;2023-02-12T06:16:50;103967.44;;;6.15;100.00
1480;BME280;732;51.698;4.886;2023-02-12T06:19:19;103981.22;;;6.26;100.00
1480;BME280;732;51.698;4.886;2023-02-12T06:21:48;103990.63;;;6.35;100.00
1480;BME280;732;51.698;4.886;2023-02-12T06:24:16;103994.34;;;6.39;100.00
1480;BME280;732;51.698;4.886;2023-02-12T06:26:48;103966.03;;;6.20;100.00
1480;BME280;732;51.698;4.886;2023-02-12T06:29:18;103991.63;;;6.37;100.00
1480;BME280;732;51.698;4.886;2023-02-12T06:31:48;103992.13;;;6.32;100.00
1480;BME280;732;51.698;4.886;2023-02-12T06:34:17;103993.94;;;6.33;100.00
1480;BME280;732;51.698;4.886;2023-02-12T06:36:46;103975.91;;;6.24;100.00
1480;BME280;732;51.698;4.886;2023-02-12T06:39:16;103973.09;;;6.21;100.00
1480;BME280;732;51.698;4.886;2023-02-12T06:41:44;103992.34;;;6.35;100.00
1480;BME280;732;51.698;4.886;2023-02-12T06:44:13;103996.44;;;6.31;100.00
1480;BME280;732;51.698;4.886;2023-02-12T06:46:42;103978.41;;;6.23;100.00
1480;BME280;732;51.698;4.886;2023-02-12T06:49:12;103983.22;;;6.17;100.00
1480;BME280;732;51.698;4.886;2023-02-12T06:51:42;103999.66;;;6.27;100.00
1480;BME280;732;51.698;4.886;2023-02-12T06:54:13;104006.50;;;6.25;100.00
1480;BME280;732;51.698;4.886;2023-02-12T06:56:41;103989.78;;;6.23;100.00
1480;BME280;732;51.698;4.886;2023-02-12T06:59:14;103972.66;;;6.15;100.00
1480;BME280;732;51.698;4.886;2023-02-12T07:01:42;104006.78;;;6.30;100.00
1480;BME280;732;51.698;4.886;2023-02-12T07:04:13;104000.53;;;6.28;100.00
1480;BME280;732;51.698;4.886;2023-02-12T07:06:41;103992.31;;;6.22;100.00
1480;BME280;732;51.698;4.886;2023-02-12T07:09:10;104017.34;;;6.31;100.00
1480;BME280;732;51.698;4.886;2023-02-12T07:11:38;104018.69;;;6.38;100.00
1480;BME280;732;51.698;4.886;2023-02-12T07:14:06;104012.13;;;6.31;100.00
1480;BME280;732;51.698;4.886;2023-02-12T07:16:35;104018.25;;;6.32;100.00
1480;BME280;732;51.698;4.886;2023-02-12T07:19:03;104022.72;;;6.33;100.00
1480;BME280;732;51.698;4.886;2023-02-12T07:21:33;104020.09;;;6.33;100.00
1480;BME280;732;51.698;4.886;2023-02-12T07:24:01;103985.63;;;6.14;100.00
1480;BME280;732;51.698;4.886;2023-02-12T07:26:30;104030.66;;;6.34;100.00
1480;BME280;732;51.698;4.886;2023-02-12T07:28:58;104010.59;;;6.22;100.00
1480;BME280;732;51.698;4.886;2023-02-12T07:31:26;104036.91;;;6.36;100.00
1480;BME280;732;51.698;4.886;2023-02-12T07:33:57;104034.38;;;6.38;100.00
1480;BME280;732;51.698;4.886;2023-02-12T07:36:28;104043.25;;;6.40;100.00
1480;BME280;732;51.698;4.886;2023-02-12T07:38:59;104008.97;;;6.24;100.00
1480;BME280;732;51.698;4.886;2023-02-12T07:41:29;104041.66;;;6.42;100.00
1480;BME280;732;51.698;4.886;2023-02-12T07:44:00;104024.31;;;6.31;100.00
1480;BME280;732;51.698;4.886;2023-02-12T07:46:34;104047.88;;;6.44;100.00
1480;BME280;732;51.698;4.886;2023-02-12T07:49:05;104027.31;;;6.37;100.00
1480;BME280;732;51.698;4.886;2023-02-12T07:51:35;104025.63;;;6.37;100.00
1480;BME280;732;51.698;4.886;2023-02-12T07:54:05;104050.31;;;6.54;100.00
1480;BME280;732;51.698;4.886;2023-02-12T07:56:35;104003.97;;;6.27;100.00
1480;BME280;732;51.698;4.886;2023-02-12T07:59:08;104048.63;;;6.54;100.00
1480;BME280;732;51.698;4.886;2023-02-12T08:01:40;104006.88;;;6.31;100.00
1480;BME280;732;51.698;4.886;2023-02-12T08:04:11;104043.63;;;6.57;100.00
1480;BME280;732;51.698;4.886;2023-02-12T08:06:42;104035.06;;;6.35;100.00
1480;BME280;732;51.698;4.886;2023-02-12T08:09:15;104044.56;;;6.46;100.00
1480;BME280;732;51.698;4.886;2023-02-12T08:11:44;104037.25;;;6.54;100.00
1480;BME280;732;51.698;4.886;2023-02-12T08:14:16;104043.25;;;6.65;100.00
1480;BME280;732;51.698;4.886;2023-02-12T08:16:46;104008.66;;;6.44;100.00
1480;BME280;732;51.698;4.886;2023-02-12T08:19:16;104050.38;;;6.67;100.00
1480;BME280;732;51.698;4.886;2023-02-12T08:21:51;104057.72;;;6.73;100.00
1480;BME280;732;51.698;4.886;2023-02-12T08:24:21;104028.72;;;6.56;100.00
1480;BME280;732;51.698;4.886;2023-02-12T08:26:51;104039.72;;;6.64;100.00
1480;BME280;732;51.698;4.886;2023-02-12T08:29:22;104056.66;;;6.82;100.00
1480;BME280;732;51.698;4.886;2023-02-12T08:31:56;104028.56;;;6.67;100.00
1480;BME280;732;51.698;4.886;2023-02-12T08:34:27;104053.34;;;6.85;100.00
1480;BME280;732;51.698;4.886;2023-02-12T08:36:57;104060.53;;;6.87;100.00
1480;BME280;732;51.698;4.886;2023-02-12T08:39:29;104064.34;;;6.92;100.00
1480;BME280;732;51.698;4.886;2023-02-12T08:41:59;104043.47;;;6.81;100.00
1480;BME280;732;51.698;4.886;2023-02-12T08:44:28;104063.56;;;6.93;100.00
1480;BME280;732;51.698;4.886;2023-02-12T08:46:56;104066.28;;;6.95;100.00
1480;BME280;732;51.698;4.886;2023-02-12T08:49:29;104065.28;;;7.06;100.00
1480;BME280;732;51.698;4.886;2023-02-12T08:51:59;104041.22;;;6.98;100.00
1480;BME280;732;51.698;4.886;2023-02-12T08:54:30;104053.22;;;7.08;100.00
1480;BME280;732;51.698;4.886;2023-02-12T08:57:01;104060.34;;;7.10;100.00
1480;BME280;732;51.698;4.886;2023-02-12T08:59:29;104072.47;;;7.21;100.00
1480;BME280;732;51.698;4.886;2023-02-12T09:01:58;104068.34;;;7.25;100.00
1480;BME280;732;51.698;4.886;2023-02-12T09:04:28;104067.25;;;7.34;100.00
1480;BME280;732;51.698;4.886;2023-02-12T09:06:57;104073.97;;;7.44;100.00
1480;BME280;732;51.698;4.886;2023-02-12T09:09:25;104051.00;;;7.14;100.00
1480;BME280;732;51.698;4.886;2023-02-12T09:11:55;104075.63;;;7.42;100.00
1480;BME280;732;51.698;4.886;2023-02-12T09:14:24;104073.50;;;7.49;100.00
1480;BME280;732;51.698;4.886;2023-02-12T09:16:53;104072.50;;;7.47;100.00
1480;BME280;732;51.698;4.886;2023-02-12T09:19:24;104057.78;;;7.36;100.00
1480;BME280;732;51.698;4.886;2023-02-12T09:21:54;104080.63;;;7.52;100.00
1480;BME280;732;51.698;4.886;2023-02-12T09:24:24;104071.47;;;7.45;100.00
1480;BME280;732;51.698;4.886;2023-02-12T09:26:55;104075.50;;;7.53;100.00
1480;BME280;732;51.698;4.886;2023-02-12T09:29:23;104081.16;;;7.73;100.00
1480;BME280;732;51.698;4.886;2023-02-12T09:31:52;104081.06;;;7.71;100.00
1480;BME280;732;51.698;4.886;2023-02-12T09:34:21;104075.31;;;7.77;100.00
1480;BME280;732;51.698;4.886;2023-02-12T09:36:49;104078.25;;;7.81;100.00
1480;BME280;732;51.698;4.886;2023-02-12T09:39:17;104068.88;;;7.72;100.00
1480;BME280;732;51.698;4.886;2023-02-12T09:42:25;104080.38;;;7.87;100.00
1480;BME280;732;51.698;4.886;2023-02-12T09:45:04;104074.19;;;7.99;100.00
1480;BME280;732;51.698;4.886;2023-02-12T09:47:43;104076.91;;;8.01;100.00
1480;BME280;732;51.698;4.886;2023-02-12T09:50:39;104074.34;;;8.15;100.00
1480;BME280;732;51.698;4.886;2023-02-12T09:53:12;104075.84;;;8.25;100.00
1480;BME280;732;51.698;4.886;2023-02-12T09:55:42;104062.25;;;8.17;100.00
1480;BME280;732;51.698;4.886;2023-02-12T09:58:16;104047.75;;;8.09;100.00
1480;BME280;732;51.698;4.886;2023-02-12T10:00:45;104072.47;;;8.13;100.00
1480;BME280;732;51.698;4.886;2023-02-12T10:03:15;104074.94;;;8.24;100.00
1480;BME280;732;51.698;4.886;2023-02-12T10:05:49;104054.38;;;8.17;100.00
1480;BME280;732;51.698;4.886;2023-02-12T10:09:01;104047.47;;;8.05;100.00
1480;BME280;732;51.698;4.886;2023-02-12T10:11:53;104053.84;;;8.23;100.00
1480;BME280;732;51.698;4.886;2023-02-12T10:15:00;104076.59;;;8.09;100.00
1480;BME280;732;51.698;4.886;2023-02-12T10:17:39;104048.28;;;8.04;100.00
1480;BME280;732;51.698;4.886;2023-02-12T10:20:33;104085.63;;;8.27;100.00
1480;BME280;732;51.698;4.886;2023-02-12T10:23:39;104082.50;;;8.20;100.00
1480;BME280;732;51.698;4.886;2023-02-12T10:26:19;104087.19;;;8.38;100.00
1480;BME280;732;51.698;4.886;2023-02-12T10:28:51;104079.16;;;8.35;100.00
1480;BME280;732;51.698;4.886;2023-02-12T10:31:28;104083.53;;;8.49;100.00
1480;BME280;732;51.698;4.886;2023-02-12T10:33:58;104072.25;;;8.51;100.00
1480;BME280;732;51.698;4.886;2023-02-12T10:36:38;104057.34;;;8.36;100.00
1480;BME280;732;51.698;4.886;2023-02-12T10:39:19;104045.66;;;8.31;100.00
1480;BME280;732;51.698;4.886;2023-02-12T10:41:55;104064.44;;;8.52;100.00
1480;BME280;732;51.698;4.886;2023-02-12T10:44:26;104046.97;;;8.25;100.00
1480;BME280;732;51.698;4.886;2023-02-12T10:46:56;104056.25;;;8.33;100.00
1480;BME280;732;51.698;4.886;2023-02-12T10:49:25;104074.91;;;8.37;100.00
1480;BME280;732;51.698;4.886;2023-02-12T10:52:04;104072.56;;;8.42;100.00
1480;BME280;732;51.698;4.886;2023-02-12T10:54:40;104041.38;;;8.19;100.00
1480;BME280;732;51.698;4.886;2023-02-12T10:57:20;104080.34;;;8.40;100.00
1480;BME280;732;51.698;4.886;2023-02-12T10:59:50;104064.81;;;8.43;100.00
1480;BME280;732;51.698;4.886;2023-02-12T11:02:25;104074.41;;;8.58;100.00
1480;BME280;732;51.698;4.886;2023-02-12T11:04:56;104072.44;;;8.68;100.00
1480;BME280;732;51.698;4.886;2023-02-12T11:07:27;104049.28;;;8.61;100.00
1480;BME280;732;51.698;4.886;2023-02-12T11:09:56;104072.50;;;8.83;100.00
1480;BME280;732;51.698;4.886;2023-02-12T11:12:33;104058.69;;;8.72;100.00
1480;BME280;732;51.698;4.886;2023-02-12T11:15:12;104067.94;;;8.80;100.00
1480;BME280;732;51.698;4.886;2023-02-12T11:17:53;104054.66;;;8.77;100.00
1480;BME280;732;51.698;4.886;2023-02-12T11:20:26;104064.53;;;8.96;100.00
1480;BME280;732;51.698;4.886;2023-02-12T11:22:58;104051.66;;;8.86;100.00
1480;BME280;732;51.698;4.886;2023-02-12T11:25:29;104060.78;;;8.63;100.00
1480;BME280;732;51.698;4.886;2023-02-12T11:28:01;104035.22;;;8.61;100.00
1480;BME280;732;51.698;4.886;2023-02-12T11:30:31;104030.19;;;8.64;100.00
1480;BME280;732;51.698;4.886;2023-02-12T11:33:27;104036.84;;;8.59;100.00
1480;BME280;732;51.698;4.886;2023-02-12T11:35:59;104023.56;;;8.56;100.00
1480;BME280;732;51.698;4.886;2023-02-12T11:38:35;104051.75;;;8.87;100.00
1480;BME280;732;51.698;4.886;2023-02-12T11:41:22;104056.66;;;8.96;100.00
1480;BME280;732;51.698;4.886;2023-02-12T11:43:52;104050.81;;;9.14;100.00
1480;BME280;732;51.698;4.886;2023-02-12T11:46:24;104048.34;;;9.17;100.00
1480;BME280;732;51.698;4.886;2023-02-12T11:48:56;104057.63;;;9.11;100.00
1480;BME280;732;51.698;4.886;2023-02-12T11:51:29;104049.72;;;9.11;100.00
1480;BME280;732;51.698;4.886;2023-02-12T11:54:01;104017.44;;;8.99;100.00
1480;BME280;732;51.698;4.886;2023-02-12T11:56:42;104048.09;;;9.27;100.00
1480;BME280;732;51.698;4.886;2023-02-12T11:59:26;104040.28;;;9.29;100.00
1480;BME280;732;51.698;4.886;2023-02-12T12:02:00;104032.84;;;9.36;100.00
1480;BME280;732;51.698;4.886;2023-02-12T12:04:34;104042.97;;;9.45;100.00
1480;BME280;732;51.698;4.886;2023-02-12T12:07:10;104026.84;;;9.54;100.00
1480;BME280;732;51.698;4.886;2023-02-12T12:09:46;104015.00;;;9.46;100.00
1480;BME280;732;51.698;4.886;2023-02-12T12:12:22;104024.06;;;9.51;100.00
1480;BME280;732;51.698;4.886;2023-02-12T12:14:56;104006.13;;;9.43;100.00
1480;BME280;732;51.698;4.886;2023-02-12T12:17:48;104020.44;;;9.49;100.00
1480;BME280;732;51.698;4.886;2023-02-12T12:20:44;104026.28;;;9.59;100.00
1480;BME280;732;51.698;4.886;2023-02-12T12:23:18;104018.69;;;9.64;100.00
1480;BME280;732;51.698;4.886;2023-02-12T12:25:50;104017.94;;;9.66;100.00
1480;BME280;732;51.698;4.886;2023-02-12T12:28:31;104009.81;;;9.62;100.00
1480;BME280;732;51.698;4.886;2023-02-12T12:31:07;103983.19;;;9.56;100.00
1480;BME280;732;51.698;4.886;2023-02-12T12:33:43;104001.78;;;9.75;100.00
1480;BME280;732;51.698;4.886;2023-02-12T12:36:44;104000.44;;;9.67;100.00
1480;BME280;732;51.698;4.886;2023-02-12T12:39:27;104001.03;;;9.77;100.00
1480;BME280;732;51.698;4.886;2023-02-12T12:42:31;103991.66;;;9.66;100.00
1480;BME280;732;51.698;4.886;2023-02-12T12:45:29;103975.28;;;9.56;100.00
1480;BME280;732;51.698;4.886;2023-02-12T12:48:14;103999.50;;;9.50;100.00
1480;BME280;732;51.698;4.886;2023-02-12T12:51:13;103946.88;;;9.03;100.00
1480;BME280;732;51.698;4.886;2023-02-12T12:54:11;103985.03;;;8.84;100.00
1480;BME280;732;51.698;4.886;2023-02-12T12:56:54;103974.94;;;9.04;100.00
1480;BME280;732;51.698;4.886;2023-02-12T12:59:47;103969.22;;;9.11;100.00
1480;BME280;732;51.698;4.886;2023-02-12T13:03:09;103983.91;;;9.22;100.00
1480;BME280;732;51.698;4.886;2023-02-12T13:06:09;103976.47;;;9.15;100.00
1480;BME280;732;51.698;4.886;2023-02-12T13:09:02;103945.13;;;8.89;100.00
1480;BME280;732;51.698;4.886;2023-02-12T13:11:42;103961.53;;;9.14;100.00
1480;BME280;732;51.698;4.886;2023-02-12T13:14:28;103967.94;;;9.19;100.00
1480;BME280;732;51.698;4.886;2023-02-12T13:17:04;103959.53;;;9.10;100.00
1480;BME280;732;51.698;4.886;2023-02-12T13:19:50;103926.75;;;9.04;100.00
1480;BME280;732;51.698;4.886;2023-02-12T13:22:26;103954.34;;;9.26;100.00
1480;BME280;732;51.698;4.886;2023-02-12T13:25:03;103947.44;;;9.43;100.00
1480;BME280;732;51.698;4.886;2023-02-12T13:27:38;103937.44;;;9.37;100.00
1480;BME280;732;51.698;4.886;2023-02-12T13:30:19;103934.63;;;9.49;100.00
1480;BME280;732;51.698;4.886;2023-02-12T13:33:01;103935.38;;;9.47;100.00
1480;BME280;732;51.698;4.886;2023-02-12T13:35:34;103925.22;;;9.38;100.00
1480;BME280;732;51.698;4.886;2023-02-12T13:38:06;103929.13;;;9.30;100.00
1480;BME280;732;51.698;4.886;2023-02-12T13:40:35;103936.50;;;9.21;100.00
1480;BME280;732;51.698;4.886;2023-02-12T13:43:17;103937.72;;;9.42;100.00
1480;BME280;732;51.698;4.886;2023-02-12T13:45:56;103946.19;;;9.53;100.00
1480;BME280;732;51.698;4.886;2023-02-12T13:51:30;103930.41;;;9.67;100.00
1480;BME280;732;51.698;4.886;2023-02-12T13:54:24;103922.25;;;9.32;100.00
1480;BME280;732;51.698;4.886;2023-02-12T13:56:59;103939.66;;;9.61;100.00
1480;BME280;732;51.698;4.886;2023-02-12T13:59:45;103930.06;;;9.77;100.00
1480;BME280;732;51.698;4.886;2023-02-12T14:02:50;103929.31;;;9.64;100.00
1480;BME280;732;51.698;4.886;2023-02-12T14:05:30;103929.41;;;9.34;100.00
1480;BME280;732;51.698;4.886;2023-02-12T14:08:02;103900.59;;;9.36;100.00